sensor_id;sensor_type;location;lat;lon;timestamp;pressure;altitude;pressure_sealevel;temperature;humidity
69351;BME280;57106;51.446;-2.606;2023-07-08T00:01:36;100925.53;;;23.32;49.50
69351;BME280;57106;51.446;-2.606;2023-07-08T00:04:01;100925.25;;;23.20;49.94
69351;BME280;57106;51.446;-2.606;2023-07-08T00:06:28;100919.63;;;23.18;49.91
69351;BME280;57106;51.446;-2.606;2023-07-08T00:08:52;100921.19;;;23.10;50.25
69351;BME280;57106;51.446;-2.606;2023-07-08T00:11:18;100919.47;;;23.23;49.91
69351;BME280;57106;51.446;-2.606;2023-07-08T00:13:43;100912.17;;;23.21;50.02
69351;BME280;57106;51.446;-2.606;2023-07-08T00:16:10;100908.97;;;23.16;50.18
69351;BME280;57106;51.446;-2.606;2023-07-08T00:18:34;100905.37;;;23.13;50.44
69351;BME280;57106;51.446;-2.606;2023-07-08T00:20:58;100907.31;;;23.15;50.38
69351;BME280;57106;51.446;-2.606;2023-07-08T00:23:24;100902.65;;;23.20;50.29
69351;BME280;57106;51.446;-2.606;2023-07-08T00:25:49;100899.11;;;23.26;50.11
69351;BME280;57106;51.446;-2.606;2023-07-08T00:28:17;100894.79;;;23.30;50.18
69351;BME280;57106;51.446;-2.606;2023-07-08T00:30:40;100892.20;;;23.16;50.47
69351;BME280;57106;51.446;-2.606;2023-07-08T00:33:06;100883.06;;;23.32;50.07
69351;BME280;57106;51.446;-2.606;2023-07-08T00:35:34;100883.60;;;23.33;50.08
69351;BME280;57106;51.446;-2.606;2023-07-08T00:37:56;100882.94;;;23.07;50.71
69351;BME280;57106;51.446;-2.606;2023-07-08T00:40:22;100881.81;;;22.98;50.95
69351;BME280;57106;51.446;-2.606;2023-07-08T00:42:48;100880.32;;;22.99;50.93
69351;BME280;57106;51.446;-2.606;2023-07-08T00:45:35;100875.39;;;23.21;50.51
69351;BME280;57106;51.446;-2.606;2023-07-08T00:47:38;100879.00;;;22.94;51.04
69351;BME280;57106;51.446;-2.606;2023-07-08T00:50:04;100877.96;;;22.95;51.02
69351;BME280;57106;51.446;-2.606;2023-07-08T00:52:29;100881.34;;;22.99;51.03
69351;BME280;57106;51.446;-2.606;2023-07-08T00:54:55;100878.59;;;23.13;50.62
69351;BME280;57106;51.446;-2.606;2023-07-08T00:57:21;100878.20;;;23.22;50.51
69351;BME280;57106;51.446;-2.606;2023-07-08T00:59:50;100875.01;;;23.21;50.49
69351;BME280;57106;51.446;-2.606;2023-07-08T01:02:12;100874.38;;;23.12;50.70
69351;BME280;57106;51.446;-2.606;2023-07-08T01:04:42;100873.35;;;23.18;50.61
69351;BME280;57106;51.446;-2.606;2023-07-08T01:07:02;100878.09;;;23.20;50.53
69351;BME280;57106;51.446;-2.606;2023-07-08T01:09:28;100872.02;;;23.09;50.80
69351;BME280;57106;51.446;-2.606;2023-07-08T01:11:52;100872.84;;;23.05;50.90
69351;BME280;57106;51.446;-2.606;2023-07-08T01:14:19;100873.03;;;23.07;50.81
69351;BME280;57106;51.446;-2.606;2023-07-08T01:16:42;100867.89;;;23.13;50.79
69351;BME280;57106;51.446;-2.606;2023-07-08T01:19:14;100873.00;;;22.93;51.30
69351;BME280;57106;51.446;-2.606;2023-07-08T01:21:35;100874.03;;;23.05;51.05
69351;BME280;57106;51.446;-2.606;2023-07-08T01:24:01;100875.91;;;23.05;51.07
69351;BME280;57106;51.446;-2.606;2023-07-08T01:26:25;100869.21;;;22.93;51.47
69351;BME280;57106;51.446;-2.606;2023-07-08T01:28:49;100867.04;;;23.01;51.27
69351;BME280;57106;51.446;-2.606;2023-07-08T01:31:14;100868.36;;;22.99;51.32
69351;BME280;57106;51.446;-2.606;2023-07-08T01:33:40;100867.34;;;23.02;51.26
69351;BME280;57106;51.446;-2.606;2023-07-08T01:36:08;100867.35;;;23.02;51.35
69351;BME280;57106;51.446;-2.606;2023-07-08T01:38:32;100865.95;;;23.01;51.29
69351;BME280;57106;51.446;-2.606;2023-07-08T01:40:58;100869.75;;;22.81;51.84
69351;BME280;57106;51.446;-2.606;2023-07-08T01:43:22;100868.33;;;22.70;52.18
69351;BME280;57106;51.446;-2.606;2023-07-08T01:45:49;100872.17;;;22.79;52.02
69351;BME280;57106;51.446;-2.606;2023-07-08T01:48:15;100870.76;;;22.76;52.15
69351;BME280;57106;51.446;-2.606;2023-07-08T01:50:42;100869.64;;;22.73;52.18
69351;BME280;57106;51.446;-2.606;2023-07-08T01:53:10;100860.71;;;22.81;52.14
69351;BME280;57106;51.446;-2.606;2023-07-08T01:55:29;100864.86;;;22.74;52.38
69351;BME280;57106;51.446;-2.606;2023-07-08T01:57:55;100863.32;;;22.77;52.34
69351;BME280;57106;51.446;-2.606;2023-07-08T02:00:21;100862.16;;;22.91;52.04
69351;BME280;57106;51.446;-2.606;2023-07-08T02:02:46;100856.66;;;22.83;52.28
69351;BME280;57106;51.446;-2.606;2023-07-08T02:05:11;100858.38;;;22.88;52.26
69351;BME280;57106;51.446;-2.606;2023-07-08T02:07:36;100860.91;;;22.80;52.51
69351;BME280;57106;51.446;-2.606;2023-07-08T02:10:02;100856.39;;;22.69;52.87
69351;BME280;57106;51.446;-2.606;2023-07-08T02:12:27;100857.97;;;22.82;52.56
69351;BME280;57106;51.446;-2.606;2023-07-08T02:14:52;100857.95;;;22.80;52.60
69351;BME280;57106;51.446;-2.606;2023-07-08T02:17:18;100859.42;;;22.73;52.86
69351;BME280;57106;51.446;-2.606;2023-07-08T02:19:43;100853.09;;;22.66;53.05
69351;BME280;57106;51.446;-2.606;2023-07-08T02:22:09;100852.83;;;22.65;53.16
69351;BME280;57106;51.446;-2.606;2023-07-08T02:24:34;100850.00;;;22.54;53.57
69351;BME280;57106;51.446;-2.606;2023-07-08T02:26:59;100850.54;;;22.52;53.71
69351;BME280;57106;51.446;-2.606;2023-07-08T02:29:25;100848.65;;;22.40;54.18
69351;BME280;57106;51.446;-2.606;2023-07-08T02:31:50;100850.08;;;22.48;54.06
69351;BME280;57106;51.446;-2.606;2023-07-08T02:34:15;100861.52;;;22.43;54.19
69351;BME280;57106;51.446;-2.606;2023-07-08T02:36:40;100862.57;;;22.39;54.40
69351;BME280;57106;51.446;-2.606;2023-07-08T02:39:06;100859.62;;;22.41;54.40
69351;BME280;57106;51.446;-2.606;2023-07-08T02:41:31;100863.96;;;22.36;54.63
69351;BME280;57106;51.446;-2.606;2023-07-08T02:43:56;100862.69;;;22.38;54.65
69351;BME280;57106;51.446;-2.606;2023-07-08T02:46:22;100859.02;;;22.42;54.67
69351;BME280;57106;51.446;-2.606;2023-07-08T02:48:48;100857.49;;;22.51;54.53
69351;BME280;57106;51.446;-2.606;2023-07-08T02:51:13;100853.36;;;22.43;54.90
69351;BME280;57106;51.446;-2.606;2023-07-08T02:53:38;100853.34;;;22.41;54.95
69351;BME280;57106;51.446;-2.606;2023-07-08T02:56:04;100854.52;;;22.39;55.24
69351;BME280;57106;51.446;-2.606;2023-07-08T02:58:30;100861.11;;;22.49;55.11
69351;BME280;57106;51.446;-2.606;2023-07-08T03:00:56;100859.49;;;22.39;55.55
69351;BME280;57106;51.446;-2.606;2023-07-08T03:03:20;100860.47;;;22.26;56.08
69351;BME280;57106;51.446;-2.606;2023-07-08T03:05:55;100862.19;;;22.25;56.22
69351;BME280;57106;51.446;-2.606;2023-07-08T03:08:11;100862.09;;;22.26;56.36
69351;BME280;57106;51.446;-2.606;2023-07-08T03:10:36;100872.90;;;22.14;56.78
69351;BME280;57106;51.446;-2.606;2023-07-08T03:13:01;100877.57;;;22.26;56.52
69351;BME280;57106;51.446;-2.606;2023-07-08T03:15:27;100877.21;;;22.07;57.16
69351;BME280;57106;51.446;-2.606;2023-07-08T03:17:53;100882.62;;;22.17;56.94
69351;BME280;57106;51.446;-2.606;2023-07-08T03:20:18;100880.41;;;22.15;57.18
69351;BME280;57106;51.446;-2.606;2023-07-08T03:22:43;100888.49;;;22.13;57.18
69351;BME280;57106;51.446;-2.606;2023-07-08T03:25:08;100897.92;;;22.03;57.55
69351;BME280;57106;51.446;-2.606;2023-07-08T03:27:34;100908.18;;;22.14;57.27
69351;BME280;57106;51.446;-2.606;2023-07-08T03:29:59;100912.92;;;22.21;57.15
69351;BME280;57106;51.446;-2.606;2023-07-08T03:32:24;100917.94;;;22.26;57.09
69351;BME280;57106;51.446;-2.606;2023-07-08T03:34:50;100918.63;;;22.19;57.27
69351;BME280;57106;51.446;-2.606;2023-07-08T03:37:15;100927.93;;;22.24;57.18
69351;BME280;57106;51.446;-2.606;2023-07-08T03:39:40;100933.44;;;22.24;57.27
69351;BME280;57106;51.446;-2.606;2023-07-08T03:42:06;100934.24;;;22.09;57.86
69351;BME280;57106;51.446;-2.606;2023-07-08T03:44:31;100939.49;;;22.09;57.87
69351;BME280;57106;51.446;-2.606;2023-07-08T03:46:56;100936.15;;;22.21;57.72
69351;BME280;57106;51.446;-2.606;2023-07-08T03:49:23;100939.60;;;22.00;58.53
69351;BME280;57106;51.446;-2.606;2023-07-08T03:51:48;100941.05;;;22.15;58.27
69351;BME280;57106;51.446;-2.606;2023-07-08T03:54:13;100946.42;;;22.23;58.16
69351;BME280;57106;51.446;-2.606;2023-07-08T03:56:38;100953.89;;;22.17;58.49
69351;BME280;57106;51.446;-2.606;2023-07-08T03:59:04;100960.04;;;22.21;58.57
69351;BME280;57106;51.446;-2.606;2023-07-08T04:01:29;100971.95;;;22.09;59.31
69351;BME280;57106;51.446;-2.606;2023-07-08T04:03:56;100977.24;;;22.13;59.39
69351;BME280;57106;51.446;-2.606;2023-07-08T04:06:20;100986.37;;;22.18;59.50
69351;BME280;57106;51.446;-2.606;2023-07-08T04:08:45;100986.10;;;22.23;59.38
69351;BME280;57106;51.446;-2.606;2023-07-08T04:11:12;100990.48;;;22.24;59.41
69351;BME280;57106;51.446;-2.606;2023-07-08T04:13:35;100992.20;;;22.19;59.71
69351;BME280;57106;51.446;-2.606;2023-07-08T04:16:04;100991.70;;;22.24;59.77
69351;BME280;57106;51.446;-2.606;2023-07-08T04:18:26;101001.31;;;22.22;59.92
69351;BME280;57106;51.446;-2.606;2023-07-08T04:20:51;101008.12;;;22.27;59.86
69351;BME280;57106;51.446;-2.606;2023-07-08T04:23:17;101017.04;;;22.35;59.75
69351;BME280;57106;51.446;-2.606;2023-07-08T04:25:42;101015.57;;;22.44;59.61
69351;BME280;57106;51.446;-2.606;2023-07-08T04:28:07;101015.89;;;22.39;59.90
69351;BME280;57106;51.446;-2.606;2023-07-08T04:30:33;101020.58;;;22.46;59.73
69351;BME280;57106;51.446;-2.606;2023-07-08T04:32:58;101023.12;;;22.53;59.59
69351;BME280;57106;51.446;-2.606;2023-07-08T04:35:23;101027.10;;;22.50;59.81
69351;BME280;57106;51.446;-2.606;2023-07-08T04:37:50;101028.31;;;22.67;59.50
69351;BME280;57106;51.446;-2.606;2023-07-08T04:40:17;101039.26;;;22.60;59.63
69351;BME280;57106;51.446;-2.606;2023-07-08T04:42:39;101041.04;;;22.72;59.48
69351;BME280;57106;51.446;-2.606;2023-07-08T04:45:06;101034.64;;;22.73;59.40
69351;BME280;57106;51.446;-2.606;2023-07-08T04:47:30;101034.97;;;22.94;58.92
69351;BME280;57106;51.446;-2.606;2023-07-08T04:49:55;101029.65;;;23.01;58.63
69351;BME280;57106;51.446;-2.606;2023-07-08T04:52:21;101025.52;;;23.17;58.15
69351;BME280;57106;51.446;-2.606;2023-07-08T04:54:46;101022.05;;;23.16;57.77
69351;BME280;57106;51.446;-2.606;2023-07-08T04:57:11;101020.59;;;23.30;57.27
69351;BME280;57106;51.446;-2.606;2023-07-08T04:59:37;101022.92;;;23.14;57.53
69351;BME280;57106;51.446;-2.606;2023-07-08T05:02:02;101028.90;;;23.31;57.03
69351;BME280;57106;51.446;-2.606;2023-07-08T05:04:27;101034.30;;;23.32;56.93
69351;BME280;57106;51.446;-2.606;2023-07-08T05:06:53;101038.31;;;23.86;55.43
69351;BME280;57106;51.446;-2.606;2023-07-08T05:09:18;101046.87;;;24.09;54.80
69351;BME280;57106;51.446;-2.606;2023-07-08T05:11:43;101056.45;;;24.20;54.17
69351;BME280;57106;51.446;-2.606;2023-07-08T05:14:10;101052.92;;;24.28;53.89
69351;BME280;57106;51.446;-2.606;2023-07-08T05:16:35;101056.46;;;24.12;54.15
69351;BME280;57106;51.446;-2.606;2023-07-08T05:18:59;101062.06;;;24.16;54.36
69351;BME280;57106;51.446;-2.606;2023-07-08T05:21:24;101064.20;;;24.03;54.67
69351;BME280;57106;51.446;-2.606;2023-07-08T05:23:50;101056.20;;;23.82;55.03
69351;BME280;57106;51.446;-2.606;2023-07-08T05:26:15;101055.06;;;23.83;55.09
69351;BME280;57106;51.446;-2.606;2023-07-08T05:28:40;101055.35;;;23.51;55.76
69351;BME280;57106;51.446;-2.606;2023-07-08T05:43:12;101074.38;;;22.81;57.71
69351;BME280;57106;51.446;-2.606;2023-07-08T05:45:38;101074.99;;;22.77;57.90
69351;BME280;57106;51.446;-2.606;2023-07-08T05:48:04;101082.68;;;22.52;58.55
69351;BME280;57106;51.446;-2.606;2023-07-08T05:50:28;101095.70;;;22.64;58.40
69351;BME280;57106;51.446;-2.606;2023-07-08T05:52:59;101101.36;;;22.70;58.12
69351;BME280;57106;51.446;-2.606;2023-07-08T05:55:19;101100.10;;;22.62;58.31
69351;BME280;57106;51.446;-2.606;2023-07-08T05:57:44;101093.72;;;22.53;58.48
69351;BME280;57106;51.446;-2.606;2023-07-08T06:00:12;101101.58;;;22.28;59.36
69351;BME280;57106;51.446;-2.606;2023-07-08T06:02:35;101113.84;;;22.42;58.95
69351;BME280;57106;51.446;-2.606;2023-07-08T06:05:00;101131.09;;;22.68;58.35
69351;BME280;57106;51.446;-2.606;2023-07-08T06:14:42;101141.92;;;22.88;58.92
69351;BME280;57106;51.446;-2.606;2023-07-08T06:17:08;101134.31;;;22.66;59.36
69351;BME280;57106;51.446;-2.606;2023-07-08T06:19:38;101133.49;;;22.63;59.62
69351;BME280;57106;51.446;-2.606;2023-07-08T06:22:05;101138.35;;;22.36;61.19
69351;BME280;57106;51.446;-2.606;2023-07-08T06:24:23;101145.47;;;22.45;61.59
69351;BME280;57106;51.446;-2.606;2023-07-08T06:31:39;101157.34;;;22.79;61.83
69351;BME280;57106;51.446;-2.606;2023-07-08T06:34:04;101161.80;;;22.79;61.98
69351;BME280;57106;51.446;-2.606;2023-07-08T06:36:30;101169.00;;;22.59;62.43
69351;BME280;57106;51.446;-2.606;2023-07-08T06:38:55;101179.37;;;22.63;62.54
69351;BME280;57106;51.446;-2.606;2023-07-08T06:41:20;101186.63;;;22.81;62.08
69351;BME280;57106;51.446;-2.606;2023-07-08T06:43:45;101190.60;;;22.59;62.88
69351;BME280;57106;51.446;-2.606;2023-07-08T06:46:11;101180.57;;;22.53;63.33
69351;BME280;57106;51.446;-2.606;2023-07-08T06:48:36;101169.99;;;22.62;63.20
69351;BME280;57106;51.446;-2.606;2023-07-08T06:51:02;101166.80;;;22.75;63.01
69351;BME280;57106;51.446;-2.606;2023-07-08T06:53:27;101158.35;;;22.64;63.55
69351;BME280;57106;51.446;-2.606;2023-07-08T06:55:52;101147.94;;;22.76;63.32
69351;BME280;57106;51.446;-2.606;2023-07-08T06:58:17;101144.50;;;22.85;63.15
69351;BME280;57106;51.446;-2.606;2023-07-08T07:00:43;101148.37;;;22.79;63.06
69351;BME280;57106;51.446;-2.606;2023-07-08T07:03:08;101151.78;;;22.76;63.93
69351;BME280;57106;51.446;-2.606;2023-07-08T07:05:34;101150.25;;;22.38;65.10
69351;BME280;57106;51.446;-2.606;2023-07-08T07:07:59;101164.49;;;22.45;64.94
69351;BME280;57106;51.446;-2.606;2023-07-08T07:10:24;101168.07;;;22.35;65.32
69351;BME280;57106;51.446;-2.606;2023-07-08T07:12:49;101178.31;;;22.13;66.06
69351;BME280;57106;51.446;-2.606;2023-07-08T07:15:15;101191.67;;;22.17;66.15
69351;BME280;57106;51.446;-2.606;2023-07-08T07:17:40;101195.21;;;22.10;66.44
69351;BME280;57106;51.446;-2.606;2023-07-08T07:20:08;101186.00;;;22.26;66.06
69351;BME280;57106;51.446;-2.606;2023-07-08T07:22:31;101179.50;;;22.42;65.30
69351;BME280;57106;51.446;-2.606;2023-07-08T07:24:56;101190.92;;;22.33;65.65
69351;BME280;57106;51.446;-2.606;2023-07-08T07:27:22;101200.71;;;22.58;64.83
69351;BME280;57106;51.446;-2.606;2023-07-08T07:29:49;101210.61;;;22.68;64.52
69351;BME280;57106;51.446;-2.606;2023-07-08T07:32:13;101219.86;;;22.76;64.07
69351;BME280;57106;51.446;-2.606;2023-07-08T07:34:38;101218.09;;;22.80;64.03
69351;BME280;57106;51.446;-2.606;2023-07-08T07:37:06;101220.14;;;22.81;64.00
69351;BME280;57106;51.446;-2.606;2023-07-08T07:39:28;101227.76;;;22.95;63.63
69351;BME280;57106;51.446;-2.606;2023-07-08T07:41:57;101233.55;;;22.76;63.73
69351;BME280;57106;51.446;-2.606;2023-07-08T07:44:21;101228.31;;;22.71;63.89
69351;BME280;57106;51.446;-2.606;2023-07-08T07:46:44;101218.46;;;22.44;64.27
69351;BME280;57106;51.446;-2.606;2023-07-08T07:49:09;101207.01;;;22.39;64.65
69351;BME280;57106;51.446;-2.606;2023-07-08T07:51:36;101200.04;;;22.45;64.63
69351;BME280;57106;51.446;-2.606;2023-07-08T07:54:00;101179.77;;;22.45;64.84
69351;BME280;57106;51.446;-2.606;2023-07-08T08:06:07;101170.00;;;22.27;67.30
69351;BME280;57106;51.446;-2.606;2023-07-08T08:08:32;101173.22;;;22.11;66.92
69351;BME280;57106;51.446;-2.606;2023-07-08T08:11:04;101179.70;;;22.23;66.87
69351;BME280;57106;51.446;-2.606;2023-07-08T08:18:14;101179.32;;;22.44;66.99
69351;BME280;57106;51.446;-2.606;2023-07-08T08:20:44;101188.79;;;22.52;66.74
69351;BME280;57106;51.446;-2.606;2023-07-08T08:23:04;101199.02;;;22.34;68.31
69351;BME280;57106;51.446;-2.606;2023-07-08T08:25:29;101200.24;;;22.49;68.10
69351;BME280;57106;51.446;-2.606;2023-07-08T08:30:20;101212.81;;;22.61;68.13
69351;BME280;57106;51.446;-2.606;2023-07-08T08:32:45;101225.98;;;22.62;67.87
69351;BME280;57106;51.446;-2.606;2023-07-08T08:35:12;101238.15;;;22.79;67.75
69351;BME280;57106;51.446;-2.606;2023-07-08T08:37:39;101243.36;;;22.74;67.71
69351;BME280;57106;51.446;-2.606;2023-07-08T08:42:30;101249.53;;;22.54;69.47
69351;BME280;57106;51.446;-2.606;2023-07-08T08:44:52;101241.10;;;22.34;69.07
69351;BME280;57106;51.446;-2.606;2023-07-08T08:47:25;101233.75;;;22.29;69.49
69351;BME280;57106;51.446;-2.606;2023-07-08T08:49:45;101222.20;;;22.33;69.46
69351;BME280;57106;51.446;-2.606;2023-07-08T08:52:08;101210.64;;;22.02;70.04
69351;BME280;57106;51.446;-2.606;2023-07-08T08:54:34;101228.87;;;22.04;70.31
69351;BME280;57106;51.446;-2.606;2023-07-08T08:57:02;101208.74;;;21.87;70.76
69351;BME280;57106;51.446;-2.606;2023-07-08T08:59:30;101205.67;;;21.70;70.96
69351;BME280;57106;51.446;-2.606;2023-07-08T09:01:50;101206.30;;;21.83;71.08
69351;BME280;57106;51.446;-2.606;2023-07-08T09:04:19;101216.08;;;21.75;70.99
69351;BME280;57106;51.446;-2.606;2023-07-08T09:06:40;101219.99;;;22.09;70.89
69351;BME280;57106;51.446;-2.606;2023-07-08T09:09:10;101228.44;;;22.40;70.79
69351;BME280;57106;51.446;-2.606;2023-07-08T09:11:39;101234.50;;;22.64;70.09
69351;BME280;57106;51.446;-2.606;2023-07-08T09:13:56;101223.57;;;22.61;69.54
69351;BME280;57106;51.446;-2.606;2023-07-08T09:16:36;101238.32;;;22.92;69.24
69351;BME280;57106;51.446;-2.606;2023-07-08T09:18:56;101237.83;;;23.07;68.19
69351;BME280;57106;51.446;-2.606;2023-07-08T09:21:18;101234.31;;;23.23;68.26
69351;BME280;57106;51.446;-2.606;2023-07-08T09:23:38;101236.30;;;23.21;67.59
69351;BME280;57106;51.446;-2.606;2023-07-08T09:26:09;101232.93;;;23.63;67.16
69351;BME280;57106;51.446;-2.606;2023-07-08T09:28:38;101239.47;;;23.80;66.83
69351;BME280;57106;51.446;-2.606;2023-07-08T09:30:53;101243.36;;;23.95;65.41
69351;BME280;57106;51.446;-2.606;2023-07-08T09:33:18;101234.88;;;24.06;64.57
69351;BME280;57106;51.446;-2.606;2023-07-08T09:35:46;101234.52;;;24.05;64.07
69351;BME280;57106;51.446;-2.606;2023-07-08T09:38:14;101233.51;;;24.14;64.53
69351;BME280;57106;51.446;-2.606;2023-07-08T09:40:35;101239.40;;;24.25;63.91
69351;BME280;57106;51.446;-2.606;2023-07-08T09:43:02;101244.66;;;24.28;63.07
69351;BME280;57106;51.446;-2.606;2023-07-08T09:45:25;101247.78;;;24.46;62.43
69351;BME280;57106;51.446;-2.606;2023-07-08T09:47:53;101244.46;;;24.50;61.82
69351;BME280;57106;51.446;-2.606;2023-07-08T09:50:19;101241.54;;;24.27;62.82
69351;BME280;57106;51.446;-2.606;2023-07-08T09:52:41;101244.41;;;24.64;61.52
69351;BME280;57106;51.446;-2.606;2023-07-08T09:55:11;101247.82;;;24.36;62.14
69351;BME280;57106;51.446;-2.606;2023-07-08T09:57:32;101252.16;;;24.58;61.99
69351;BME280;57106;51.446;-2.606;2023-07-08T09:59:58;101246.64;;;24.73;61.41
69351;BME280;57106;51.446;-2.606;2023-07-08T10:02:28;101251.48;;;24.64;60.88
69351;BME280;57106;51.446;-2.606;2023-07-08T10:04:47;101264.67;;;24.56;61.34
69351;BME280;57106;51.446;-2.606;2023-07-08T10:07:16;101276.78;;;24.32;62.03
69351;BME280;57106;51.446;-2.606;2023-07-08T10:09:37;101279.03;;;24.33;62.10
69351;BME280;57106;51.446;-2.606;2023-07-08T10:12:05;101280.51;;;24.25;62.81
69351;BME280;57106;51.446;-2.606;2023-07-08T10:14:32;101284.45;;;24.22;62.77
69351;BME280;57106;51.446;-2.606;2023-07-08T10:16:53;101276.11;;;24.29;62.57
69351;BME280;57106;51.446;-2.606;2023-07-08T10:19:20;101281.41;;;24.37;62.16
69351;BME280;57106;51.446;-2.606;2023-07-08T10:21:51;101278.18;;;24.50;60.98
69351;BME280;57106;51.446;-2.606;2023-07-08T10:24:20;101277.93;;;24.38;61.13
69351;BME280;57106;51.446;-2.606;2023-07-08T10:26:35;101279.75;;;24.55;60.63
69351;BME280;57106;51.446;-2.606;2023-07-08T10:29:11;101278.68;;;24.66;60.60
69351;BME280;57106;51.446;-2.606;2023-07-08T10:31:29;101281.07;;;24.61;60.86
69351;BME280;57106;51.446;-2.606;2023-07-08T10:34:03;101283.95;;;24.71;60.22
69351;BME280;57106;51.446;-2.606;2023-07-08T10:36:23;101294.61;;;24.83;60.29
69351;BME280;57106;51.446;-2.606;2023-07-08T10:38:49;101305.06;;;24.31;61.37
69351;BME280;57106;51.446;-2.606;2023-07-08T10:41:12;101310.49;;;24.15;61.51
69351;BME280;57106;51.446;-2.606;2023-07-08T10:43:43;101311.77;;;24.22;61.25
69351;BME280;57106;51.446;-2.606;2023-07-08T10:46:08;101311.52;;;24.34;60.63
69351;BME280;57106;51.446;-2.606;2023-07-08T10:55:43;101333.46;;;24.52;61.03
69351;BME280;57106;51.446;-2.606;2023-07-08T11:00:34;101321.73;;;25.04;59.41
69351;BME280;57106;51.446;-2.606;2023-07-08T11:05:26;101318.41;;;25.35;58.22
69351;BME280;57106;51.446;-2.606;2023-07-08T11:07:47;101317.12;;;25.27;58.52
69351;BME280;57106;51.446;-2.606;2023-07-08T11:10:15;101317.53;;;25.45;58.30
69351;BME280;57106;51.446;-2.606;2023-07-08T11:12:38;101319.93;;;25.48;58.24
69351;BME280;57106;51.446;-2.606;2023-07-08T11:15:06;101329.79;;;25.15;59.10
69351;BME280;57106;51.446;-2.606;2023-07-08T11:17:30;101335.30;;;25.52;58.64
69351;BME280;57106;51.446;-2.606;2023-07-08T11:19:56;101334.68;;;25.63;57.95
69351;BME280;57106;51.446;-2.606;2023-07-08T11:22:17;101339.05;;;25.47;58.83
69351;BME280;57106;51.446;-2.606;2023-07-08T11:27:11;101338.29;;;24.86;60.31
69351;BME280;57106;51.446;-2.606;2023-07-08T11:29:37;101331.54;;;25.09;60.21
69351;BME280;57106;51.446;-2.606;2023-07-08T11:31:57;101330.72;;;25.53;58.73
69351;BME280;57106;51.446;-2.606;2023-07-08T11:34:22;101343.45;;;25.51;58.82
69351;BME280;57106;51.446;-2.606;2023-07-08T11:36:49;101346.92;;;25.82;57.76
69351;BME280;57106;51.446;-2.606;2023-07-08T11:48:53;101349.60;;;26.10;56.69
69351;BME280;57106;51.446;-2.606;2023-07-08T11:51:20;101353.48;;;25.83;56.88
69351;BME280;57106;51.446;-2.606;2023-07-08T11:53:48;101353.95;;;25.72;56.00
69351;BME280;57106;51.446;-2.606;2023-07-08T12:01:04;101360.94;;;25.18;57.23
69351;BME280;57106;51.446;-2.606;2023-07-08T12:03:34;101364.47;;;25.18;57.09
69351;BME280;57106;51.446;-2.606;2023-07-08T12:05:50;101369.46;;;25.18;56.82
69351;BME280;57106;51.446;-2.606;2023-07-08T12:08:18;101365.46;;;24.79;58.18
69351;BME280;57106;51.446;-2.606;2023-07-08T12:10:45;101375.27;;;24.45;58.73
69351;BME280;57106;51.446;-2.606;2023-07-08T12:13:13;101377.96;;;24.32;59.80
69351;BME280;57106;51.446;-2.606;2023-07-08T12:15:32;101378.89;;;24.16;60.67
69351;BME280;57106;51.446;-2.606;2023-07-08T12:17:59;101387.54;;;23.89;63.14
69351;BME280;57106;51.446;-2.606;2023-07-08T12:20:26;101393.33;;;23.88;64.23
69351;BME280;57106;51.446;-2.606;2023-07-08T12:22:47;101396.31;;;23.47;66.65
69351;BME280;57106;51.446;-2.606;2023-07-08T12:25:17;101395.60;;;23.40;68.46
69351;BME280;57106;51.446;-2.606;2023-07-08T12:27:37;101388.40;;;23.44;69.16
69351;BME280;57106;51.446;-2.606;2023-07-08T12:30:03;101379.21;;;23.35;69.95
69351;BME280;57106;51.446;-2.606;2023-07-08T12:32:29;101375.11;;;23.25;71.06
69351;BME280;57106;51.446;-2.606;2023-07-08T12:44:35;101344.79;;;22.66;75.32
69351;BME280;57106;51.446;-2.606;2023-07-08T12:47:02;101378.73;;;22.92;75.33
69351;BME280;57106;51.446;-2.606;2023-07-08T12:49:25;101398.14;;;23.08;74.17
69351;BME280;57106;51.446;-2.606;2023-07-08T12:51:51;101407.64;;;23.26;74.71
69351;BME280;57106;51.446;-2.606;2023-07-08T12:54:16;101400.26;;;23.32;74.22
69351;BME280;57106;51.446;-2.606;2023-07-08T12:56:44;101394.90;;;23.33;72.86
69351;BME280;57106;51.446;-2.606;2023-07-08T12:59:14;101387.99;;;23.12;73.90
69351;BME280;57106;51.446;-2.606;2023-07-08T13:01:34;101398.97;;;23.23;73.83
69351;BME280;57106;51.446;-2.606;2023-07-08T13:04:01;101399.16;;;22.95;73.90
69351;BME280;57106;51.446;-2.606;2023-07-08T13:06:26;101403.28;;;22.79;74.83
69351;BME280;57106;51.446;-2.606;2023-07-08T13:08:48;101416.71;;;22.93;74.54
69351;BME280;57106;51.446;-2.606;2023-07-08T13:11:15;101419.90;;;23.05;74.75
69351;BME280;57106;51.446;-2.606;2023-07-08T13:13:44;101411.69;;;23.10;73.51
69351;BME280;57106;51.446;-2.606;2023-07-08T13:16:04;101412.01;;;23.25;73.99
69351;BME280;57106;51.446;-2.606;2023-07-08T13:18:32;101414.48;;;23.56;73.25
69351;BME280;57106;51.446;-2.606;2023-07-08T13:20:55;101413.79;;;23.63;72.58
69351;BME280;57106;51.446;-2.606;2023-07-08T13:23:21;101408.64;;;23.77;71.67
69351;BME280;57106;51.446;-2.606;2023-07-08T13:25:47;101414.88;;;23.73;71.42
69351;BME280;57106;51.446;-2.606;2023-07-08T13:28:17;101419.34;;;24.60;71.23
69351;BME280;57106;51.446;-2.606;2023-07-08T13:30:35;101421.52;;;24.54;70.55
69351;BME280;57106;51.446;-2.606;2023-07-08T13:33:01;101426.31;;;24.42;68.95
69351;BME280;57106;51.446;-2.606;2023-07-08T13:35:34;101429.12;;;24.28;69.06
69351;BME280;57106;51.446;-2.606;2023-07-08T13:37:51;101433.73;;;24.23;68.66
69351;BME280;57106;51.446;-2.606;2023-07-08T13:40:16;101433.37;;;24.25;69.61
69351;BME280;57106;51.446;-2.606;2023-07-08T13:42:47;101427.54;;;24.51;69.79
69351;BME280;57106;51.446;-2.606;2023-07-08T13:45:14;101422.08;;;24.42;67.59
69351;BME280;57106;51.446;-2.606;2023-07-08T13:47:32;101417.39;;;24.76;68.42
69351;BME280;57106;51.446;-2.606;2023-07-08T13:50:07;101412.60;;;25.19;67.30
69351;BME280;57106;51.446;-2.606;2023-07-08T13:52:23;101413.13;;;25.60;65.30